createdAt,value
2023-03-12T00:02:25.288Z,100.00
2023-03-12T00:05:16.690Z,100.00
2023-03-12T00:08:16.125Z,100.00
2023-03-12T00:11:29.587Z,100.00
2023-03-12T00:14:25.237Z,100.00
2023-03-12T00:16:58.578Z,100.00
2023-03-12T00:19:53.940Z,100.00
2023-03-12T00:22:44.844Z,100.00
2023-03-12T00:25:34.138Z,100.00
2023-03-12T00:28:25.010Z,100.00
2023-03-12T00:30:58.366Z,100.00
2023-03-12T00:33:56.282Z,100.00
2023-03-12T00:36:46.764Z,100.00
2023-03-12T00:39:37.969Z,100.00
2023-03-12T00:42:18.962Z,100.00
2023-03-12T00:44:58.323Z,100.00
2023-03-12T00:47:52.909Z,100.00
2023-03-12T00:50:26.500Z,100.00
2023-03-12T00:53:20.320Z,100.00
2023-03-12T00:56:02.567Z,100.00
2023-03-12T00:58:44.677Z,100.00
2023-03-12T01:01:26.685Z,100.00
2023-03-12T01:04:26.450Z,100.00
2023-03-12T01:06:58.460Z,100.00
2023-03-12T01:10:28.395Z,100.00
2023-03-12T01:13:26.847Z,100.00
2023-03-12T01:16:28.115Z,100.00
2023-03-12T01:19:25.294Z,100.00
2023-03-12T01:22:01.909Z,100.00
2023-03-12T01:24:36.041Z,100.00
2023-03-12T01:27:14.670Z,100.00
2023-03-12T01:30:04.126Z,100.00
2023-03-12T01:32:32.640Z,100.00
2023-03-12T01:35:04.857Z,100.00
2023-03-12T01:37:56.321Z,100.00
2023-03-12T01:40:48.058Z,100.00
2023-03-12T01:44:02.934Z,100.00
2023-03-12T01:46:48.686Z,100.00
2023-03-12T01:49:34.592Z,100.00
2023-03-12T01:52:35.504Z,100.00
2023-03-12T01:55:27.194Z,100.00
2023-03-12T01:57:58.961Z,100.00
2023-03-12T02:00:32.287Z,100.00
2023-03-12T02:03:40.958Z,100.00
2023-03-12T02:06:14.947Z,100.00
2023-03-12T02:09:01.547Z,100.00
2023-03-12T02:11:45.287Z,100.00
2023-03-12T02:14:19.328Z,100.00
2023-03-12T02:17:20.434Z,100.00
2023-03-12T02:20:32.253Z,100.00
2023-03-12T02:23:38.276Z,100.00
2023-03-12T02:26:50.495Z,100.00
2023-03-12T02:29:29.112Z,100.00
2023-03-12T02:32:29.197Z,100.00
2023-03-12T02:34:57.709Z,100.00
2023-03-12T02:37:55.773Z,100.00
2023-03-12T02:40:43.114Z,100.00
2023-03-12T02:43:27.864Z,100.00
2023-03-12T02:46:29.026Z,100.00
2023-03-12T02:49:24.606Z,100.00
2023-03-12T02:52:16.571Z,100.00
2023-03-12T02:54:46.896Z,100.00
2023-03-12T02:57:17.825Z,100.00
2023-03-12T02:59:58.186Z,100.00
2023-03-12T03:02:26.657Z,100.00
2023-03-12T03:04:55.158Z,100.00
2023-03-12T03:07:43.817Z,100.00
2023-03-12T03:10:28.669Z,100.00
2023-03-12T03:13:26.942Z,100.00
2023-03-12T03:16:05.031Z,100.00
2023-03-12T03:19:00.130Z,100.00
2023-03-12T03:21:56.995Z,100.00
2023-03-12T03:24:25.196Z,100.00
2023-03-12T03:28:13.884Z,100.00
2023-03-12T03:31:32.738Z,100.00
2023-03-12T03:34:26.373Z,100.00
2023-03-12T03:37:03.654Z,100.00
2023-03-12T03:40:12.179Z,100.00
2023-03-12T03:42:42.926Z,100.00
2023-03-12T03:45:53.651Z,100.00
2023-03-12T03:48:54.711Z,100.00
2023-03-12T03:52:08.770Z,100.00
2023-03-12T03:55:11.993Z,100.00
2023-03-12T03:58:05.865Z,100.00
2023-03-12T04:01:14.712Z,100.00
2023-03-12T04:04:33.262Z,100.00
2023-03-12T04:07:14.665Z,100.00
2023-03-12T04:09:56.288Z,100.00
2023-03-12T04:12:28.023Z,100.00
2023-03-12T04:15:06.820Z,100.00
2023-03-12T04:17:50.135Z,100.00
2023-03-12T04:20:34.142Z,100.00
2023-03-12T04:23:14.818Z,100.00
2023-03-12T04:25:50.493Z,100.00
2023-03-12T04:28:34.830Z,100.00
2023-03-12T04:31:18.694Z,100.00
2023-03-12T04:34:16.314Z,100.00
2023-03-12T04:37:11.225Z,100.00
2023-03-12T04:39:48.260Z,100.00
2023-03-12T04:42:51.227Z,100.00
2023-03-12T04:45:20.637Z,100.00
2023-03-12T04:48:24.774Z,100.00
2023-03-12T04:51:32.350Z,100.00
2023-03-12T04:54:22.671Z,100.00
2023-03-12T04:57:30.276Z,100.00
2023-03-12T05:00:34.852Z,100.00
2023-03-12T05:03:43.329Z,100.00
2023-03-12T05:06:38.727Z,100.00
2023-03-12T05:09:22.716Z,100.00
2023-03-12T05:11:54.420Z,100.00
2023-03-12T05:14:58.908Z,100.00
2023-03-12T05:17:32.391Z,100.00
2023-03-12T05:20:31.970Z,100.00
2023-03-12T05:23:46.139Z,100.00
2023-03-12T05:26:35.750Z,100.00
2023-03-12T05:29:35.205Z,100.00
2023-03-12T05:32:07.590Z,100.00
2023-03-12T05:34:48.695Z,100.00
2023-03-12T05:37:27.684Z,100.00
2023-03-12T05:39:55.882Z,100.00
2023-03-12T05:42:25.232Z,100.00
2023-03-12T05:45:03.914Z,100.00
2023-03-12T05:47:35.764Z,100.00
2023-03-12T05:50:17.849Z,100.00
2023-03-12T05:52:46.455Z,100.00
2023-03-12T05:55:19.621Z,100.00
2023-03-12T05:57:50.947Z,100.00
2023-03-12T06:00:38.886Z,100.00
2023-03-12T06:03:18.889Z,100.00
2023-03-12T06:05:58.112Z,100.00
2023-03-12T06:08:56.690Z,100.00
2023-03-12T06:11:48.218Z,100.00
2023-03-12T06:14:19.260Z,100.00
2023-03-12T06:16:53.583Z,100.00
2023-03-12T06:19:54.910Z,100.00
2023-03-12T06:22:28.833Z,100.00
2023-03-12T06:24:59.778Z,100.00
2023-03-12T06:27:42.295Z,100.00
2023-03-12T06:31:05.381Z,100.00
2023-03-12T06:33:37.200Z,100.00
2023-03-12T06:36:16.826Z,100.00
2023-03-12T06:38:57.280Z,100.00
2023-03-12T06:41:58.303Z,100.00
2023-03-12T06:45:24.532Z,100.00
2023-03-12T06:49:13.251Z,100.00
2023-03-12T06:52:52.155Z,100.00
2023-03-12T06:55:59.647Z,100.00
2023-03-12T06:58:58.867Z,100.00
2023-03-12T07:01:35.046Z,100.00
2023-03-12T07:04:11.824Z,100.00
2023-03-12T07:07:31.982Z,100.00
2023-03-12T07:10:20.554Z,100.00
2023-03-12T07:13:29.239Z,100.00
2023-03-12T07:16:39.743Z,100.00
2023-03-12T07:20:08.559Z,100.00
2023-03-12T07:22:39.282Z,100.00
2023-03-12T07:25:25.679Z,100.00
2023-03-12T07:28:19.860Z,100.00
2023-03-12T07:31:08.375Z,100.00
2023-03-12T07:34:37.117Z,100.00
2023-03-12T07:37:15.613Z,100.00
2023-03-12T07:39:54.114Z,100.00
2023-03-12T07:43:13.604Z,100.00
2023-03-12T07:46:35.359Z,100.00
2023-03-12T07:50:15.223Z,100.00
2023-03-12T07:53:53.894Z,100.00
2023-03-12T07:57:11.355Z,100.00
2023-03-12T08:01:00.484Z,100.00
2023-03-12T08:04:49.471Z,100.00
2023-03-12T08:07:58.904Z,100.00
2023-03-12T08:11:37.806Z,100.00
2023-03-12T08:14:49.246Z,100.00
2023-03-12T08:18:28.089Z,100.00
2023-03-12T08:22:06.874Z,100.00
2023-03-12T08:25:48.324Z,100.00
2023-03-12T08:29:27.084Z,100.00
2023-03-12T08:32:46.762Z,100.00
2023-03-12T08:36:25.369Z,100.00
2023-03-12T08:40:03.891Z,100.00
2023-03-12T08:43:52.860Z,100.00
2023-03-12T08:47:21.637Z,100.00
2023-03-12T08:50:52.509Z,100.00
2023-03-12T08:54:23.766Z,98.36
2023-03-12T08:57:04.682Z,97.77
2023-03-12T08:59:55.885Z,96.93
2023-03-12T09:03:14.009Z,95.70
2023-03-12T09:06:23.492Z,94.69
2023-03-12T09:09:15.017Z,93.72
2023-03-12T09:12:36.771Z,92.13
2023-03-12T09:15:55.643Z,91.97
2023-03-12T09:18:49.265Z,91.03
2023-03-12T09:21:47.548Z,89.21
2023-03-12T09:24:28.336Z,89.34
2023-03-12T09:27:29.527Z,90.65
2023-03-12T09:31:09.438Z,90.35
2023-03-12T09:35:38.206Z,85.86
2023-03-12T09:38:50.486Z,85.45
2023-03-12T09:42:31.960Z,85.60
2023-03-12T09:46:04.658Z,84.54
2023-03-12T09:49:16.604Z,81.05
2023-03-12T09:52:42.335Z,83.49
2023-03-12T09:55:55.770Z,84.29
2023-03-12T09:58:43.684Z,84.03
2023-03-12T10:02:24.425Z,83.49
2023-03-12T10:05:28.271Z,82.23
2023-03-12T10:08:25.131Z,84.09
2023-03-12T10:11:47.634Z,81.74
2023-03-12T10:15:26.309Z,81.28
2023-03-12T10:18:52.483Z,83.47
2023-03-12T10:21:56.951Z,78.72
2023-03-12T10:25:27.087Z,78.55
2023-03-12T10:28:35.828Z,80.20
2023-03-12T10:32:28.937Z,82.01
2023-03-12T10:35:41.886Z,79.54
2023-03-12T10:38:53.294Z,79.96
2023-03-12T10:41:58.150Z,78.90
2023-03-12T10:46:38.401Z,75.57
2023-03-12T10:49:21.871Z,73.40
2023-03-12T10:52:33.197Z,72.24
2023-03-12T10:56:24.876Z,73.60
2023-03-12T10:59:58.658Z,73.74
2023-03-12T11:03:09.468Z,75.02
2023-03-12T11:06:08.695Z,75.22
2023-03-12T11:08:42.405Z,75.33
2023-03-12T11:12:03.850Z,75.06
2023-03-12T11:14:52.302Z,69.88
2023-03-12T11:17:29.310Z,70.63
2023-03-12T11:20:58.429Z,69.72
2023-03-12T11:23:43.767Z,67.79
2023-03-12T11:26:37.532Z,68.13
2023-03-12T11:29:58.340Z,69.15
2023-03-12T11:32:45.650Z,68.78
2023-03-12T11:35:49.328Z,68.31
2023-03-12T11:39:00.450Z,68.02
2023-03-12T11:42:31.422Z,68.41
2023-03-12T11:45:21.566Z,67.20
2023-03-12T11:49:01.045Z,67.35
2023-03-12T11:52:39.356Z,66.35
2023-03-12T11:56:00.702Z,67.84
2023-03-12T11:59:18.516Z,66.19
2023-03-12T12:02:37.234Z,65.20
2023-03-12T12:05:49.677Z,62.33
2023-03-12T12:08:53.782Z,61.62
2023-03-12T12:11:58.167Z,62.99
2023-03-12T12:15:32.677Z,61.76
2023-03-12T12:18:43.202Z,61.97
2023-03-12T12:21:39.789Z,61.16
2023-03-12T12:24:41.514Z,61.14
2023-03-12T12:28:11.428Z,61.46
2023-03-12T12:31:51.642Z,60.78
2023-03-12T12:35:14.260Z,60.92
2023-03-12T12:38:30.306Z,60.88
2023-03-12T12:41:54.887Z,60.11
2023-03-12T12:45:08.681Z,59.12
2023-03-12T12:48:38.493Z,59.94
2023-03-12T12:52:20.201Z,60.32
2023-03-12T12:56:07.735Z,59.22
2023-03-12T12:59:31.506Z,59.14
2023-03-12T13:03:02.567Z,59.21
2023-03-12T13:06:33.801Z,57.77
2023-03-12T13:09:56.053Z,58.14
2023-03-12T13:12:58.404Z,59.15
2023-03-12T13:15:53.127Z,58.73
2023-03-12T13:19:16.673Z,58.39
2023-03-12T13:22:52.584Z,57.98
2023-03-12T13:26:45.954Z,57.68
2023-03-12T13:29:55.043Z,58.29
2023-03-12T13:33:18.240Z,58.73
2023-03-12T13:36:44.705Z,58.94
2023-03-12T13:40:14.372Z,57.86
2023-03-12T13:44:09.898Z,56.85
2023-03-12T13:46:57.403Z,57.05
2023-03-12T13:50:13.647Z,57.75
2023-03-12T13:53:48.651Z,57.73
2023-03-12T13:57:27.506Z,57.55
2023-03-12T14:00:58.936Z,56.86
2023-03-12T14:04:16.611Z,57.43
2023-03-12T14:07:43.496Z,57.48
2023-03-12T14:11:10.404Z,57.24
2023-03-12T14:14:40.289Z,57.64
2023-03-12T14:17:46.486Z,58.01
2023-03-12T14:20:58.712Z,57.60
2023-03-12T14:24:12.155Z,57.46
2023-03-12T14:27:13.661Z,57.40
2023-03-12T14:31:16.389Z,57.65
2023-03-12T14:34:53.660Z,58.02
2023-03-12T14:37:42.893Z,56.79
2023-03-12T14:40:48.857Z,56.65
2023-03-12T14:43:39.476Z,56.65
2023-03-12T14:46:19.565Z,57.15
2023-03-12T14:48:50.440Z,57.66
2023-03-12T14:51:27.641Z,57.94
2023-03-12T14:54:36.173Z,58.21
2023-03-12T14:57:28.912Z,58.31
2023-03-12T15:00:23.206Z,59.11
2023-03-12T15:02:53.859Z,59.31
2023-03-12T15:05:55.115Z,59.27
2023-03-12T15:08:29.175Z,59.69
2023-03-12T15:11:10.483Z,59.45
2023-03-12T15:13:39.977Z,59.38
2023-03-12T15:16:37.469Z,59.68
2023-03-12T15:19:30.984Z,59.96
2023-03-12T15:21:59.991Z,59.46
2023-03-12T15:24:39.241Z,59.58
2023-03-12T15:27:34.897Z,59.61
2023-03-12T15:30:33.130Z,59.68
2023-03-12T15:33:28.250Z,59.85
2023-03-12T15:36:14.822Z,60.73
2023-03-12T15:39:26.488Z,60.96
2023-03-12T15:41:56.412Z,61.23
2023-03-12T15:44:31.947Z,61.14
2023-03-12T15:47:11.734Z,61.23
2023-03-12T15:49:41.684Z,61.43
2023-03-12T15:52:44.195Z,60.97
2023-03-12T15:56:17.648Z,61.60
2023-03-12T15:59:02.817Z,61.81
2023-03-12T16:01:45.135Z,61.62
2023-03-12T16:04:16.700Z,62.06
2023-03-12T16:06:48.744Z,61.61
2023-03-12T16:09:47.542Z,61.89
2023-03-12T16:12:29.779Z,62.21
2023-03-12T16:14:58.220Z,62.06
2023-03-12T16:17:38.888Z,62.20
2023-03-12T16:20:12.030Z,62.18
2023-03-12T16:23:23.851Z,62.33
2023-03-12T16:26:15.456Z,62.16
2023-03-12T16:28:46.119Z,62.35
2023-03-12T16:31:19.434Z,62.35
2023-03-12T16:34:00.995Z,62.51
2023-03-12T16:36:51.812Z,62.75
2023-03-12T16:39:20.427Z,62.74
2023-03-12T16:41:56.949Z,62.70
2023-03-12T16:44:33.516Z,63.37
2023-03-12T16:47:13.742Z,63.63
2023-03-12T16:49:54.034Z,63.32
2023-03-12T16:52:27.354Z,63.30
2023-03-12T16:54:55.492Z,63.53
2023-03-12T16:57:32.068Z,63.50
2023-03-12T17:00:35.790Z,63.63
2023-03-12T17:03:55.593Z,63.73
2023-03-12T17:07:09.451Z,64.10
2023-03-12T17:10:10.424Z,64.30
2023-03-12T17:13:01.033Z,64.50
2023-03-12T17:16:00.470Z,64.69
2023-03-12T17:19:38.265Z,65.25
2023-03-12T17:22:32.148Z,66.08
2023-03-12T17:25:56.179Z,66.32
2023-03-12T17:29:25.467Z,67.00
2023-03-12T17:32:33.795Z,67.97
2023-03-12T17:36:01.917Z,69.35
2023-03-12T17:39:25.336Z,70.34
2023-03-12T17:42:31.381Z,71.56
2023-03-12T17:45:36.993Z,72.40
2023-03-12T17:48:18.178Z,73.23
2023-03-12T17:51:07.486Z,73.30
2023-03-12T17:53:58.775Z,74.21
2023-03-12T17:56:39.209Z,74.84
2023-03-12T17:59:09.640Z,75.32
2023-03-12T18:01:40.439Z,76.40
2023-03-12T18:04:24.745Z,76.39
2023-03-12T18:07:43.342Z,76.87
2023-03-12T18:10:35.831Z,77.62
2023-03-12T18:13:34.687Z,78.06
2023-03-12T18:16:50.927Z,78.60
2023-03-12T18:19:29.329Z,78.83
2023-03-12T18:22:00.072Z,79.45
2023-03-12T18:25:11.704Z,79.72
2023-03-12T18:27:55.762Z,80.12
2023-03-12T18:30:50.636Z,81.02
2023-03-12T18:33:21.274Z,81.64
2023-03-12T18:36:01.871Z,81.85
2023-03-12T18:39:03.873Z,82.39
2023-03-12T18:42:13.682Z,83.19
2023-03-12T18:45:45.781Z,83.75
2023-03-12T18:48:32.183Z,84.11
2023-03-12T18:51:10.505Z,84.74
2023-03-12T18:53:51.018Z,85.49
2023-03-12T18:56:49.213Z,85.84
2023-03-12T18:59:31.202Z,86.20
2023-03-12T19:02:00.415Z,86.50
2023-03-12T19:04:54.135Z,86.97
2023-03-12T19:07:24.184Z,87.24
2023-03-12T19:09:58.122Z,87.34
2023-03-12T19:12:36.653Z,87.67
2023-03-12T19:15:14.985Z,87.89
2023-03-12T19:17:58.741Z,88.25
2023-03-12T19:20:33.333Z,88.53
2023-03-12T19:23:16.354Z,88.63
2023-03-12T19:25:54.265Z,88.95
2023-03-12T19:28:27.442Z,89.29
2023-03-12T19:31:06.942Z,89.28
2023-03-12T19:33:55.881Z,89.57
2023-03-12T19:36:41.325Z,89.83
2023-03-12T19:39:21.592Z,90.07
2023-03-12T19:42:42.918Z,90.12
2023-03-12T19:46:10.551Z,90.25
2023-03-12T19:49:20.813Z,90.74
2023-03-12T19:52:00.727Z,91.15
2023-03-12T19:54:34.512Z,91.47
2023-03-12T19:57:19.190Z,91.16
2023-03-12T19:59:52.542Z,91.21
2023-03-12T20:02:32.137Z,91.55
2023-03-12T20:05:16.873Z,91.76
2023-03-12T20:08:30.222Z,91.64
2023-03-12T20:11:31.105Z,91.79
2023-03-12T20:14:31.136Z,91.96
2023-03-12T20:17:15.372Z,92.00
2023-03-12T20:20:05.780Z,91.90
2023-03-12T20:22:36.214Z,91.72
2023-03-12T20:25:15.045Z,91.77
2023-03-12T20:28:14.992Z,91.58
2023-03-12T20:30:45.814Z,91.74
2023-03-12T20:33:37.536Z,91.85
2023-03-12T20:36:34.538Z,92.03
2023-03-12T20:39:48.758Z,92.21
2023-03-12T20:42:56.924Z,92.55
2023-03-12T20:46:15.462Z,92.75
2023-03-12T20:49:05.992Z,93.16
2023-03-12T20:51:40.693Z,93.21
2023-03-12T20:54:39.110Z,93.26
2023-03-12T20:57:43.103Z,93.18
2023-03-12T21:00:29.194Z,93.49
2023-03-12T21:03:48.802Z,93.92
2023-03-12T21:06:32.465Z,93.99
2023-03-12T21:09:15.030Z,94.31
2023-03-12T21:11:58.565Z,94.00
2023-03-12T21:14:36.905Z,94.57
2023-03-12T21:17:27.487Z,94.03
2023-03-12T21:20:46.082Z,94.70
2023-03-12T21:23:54.760Z,94.60
2023-03-12T21:26:55.797Z,94.92
2023-03-12T21:30:24.620Z,95.56
2023-03-12T21:34:00.179Z,95.34
2023-03-12T21:37:02.292Z,95.92
2023-03-12T21:40:33.504Z,96.06
2023-03-12T21:43:43.142Z,95.99
2023-03-12T21:47:22.989Z,96.28
2023-03-12T21:51:12.101Z,95.97
2023-03-12T21:54:51.948Z,96.23
2023-03-12T21:57:50.779Z,96.36
2023-03-12T22:00:42.212Z,96.39
2023-03-12T22:03:24.045Z,96.56
2023-03-12T22:05:53.002Z,96.80
2023-03-12T22:09:01.570Z,96.80
2023-03-12T22:12:12.933Z,97.18
2023-03-12T22:15:07.382Z,97.01
2023-03-12T22:17:48.874Z,96.86
2023-03-12T22:20:39.145Z,97.11
2023-03-12T22:23:47.734Z,96.85
2023-03-12T22:26:27.664Z,96.58
2023-03-12T22:29:14.758Z,96.95
2023-03-12T22:31:51.931Z,96.54
2023-03-12T22:34:23.060Z,96.68
2023-03-12T22:37:13.884Z,96.51
2023-03-12T22:39:58.131Z,96.68
2023-03-12T22:42:36.212Z,96.79
2023-03-12T22:45:10.255Z,96.86
2023-03-12T22:48:10.862Z,96.77
2023-03-12T22:50:39.257Z,96.77
2023-03-12T22:53:10.060Z,97.01
2023-03-12T22:56:02.153Z,97.01
2023-03-12T22:58:56.901Z,96.71
2023-03-12T23:01:25.241Z,97.23
2023-03-12T23:03:53.709Z,97.16
2023-03-12T23:06:29.985Z,97.21
2023-03-12T23:09:04.024Z,97.24
2023-03-12T23:11:38.844Z,97.47
2023-03-12T23:14:30.954Z,97.61
2023-03-12T23:17:12.494Z,97.48
2023-03-12T23:19:55.392Z,97.39
2023-03-12T23:23:04.984Z,97.76
2023-03-12T23:25:33.346Z,97.67
2023-03-12T23:29:00.736Z,97.63
2023-03-12T23:31:48.349Z,97.97
2023-03-12T23:34:19.445Z,97.93
2023-03-12T23:36:50.298Z,98.02
2023-03-12T23:39:18.621Z,98.10
2023-03-12T23:41:56.422Z,98.31
2023-03-12T23:44:27.842Z,98.50
2023-03-12T23:46:58.438Z,98.46
2023-03-12T23:49:39.850Z,98.17
2023-03-12T23:52:07.967Z,97.95
2023-03-12T23:54:48.384Z,97.89
2023-03-12T23:57:19.135Z,97.61
